Time;durP1;ratioP1;P1;durP2;ratioP2;P2;SDS_P1;SDS_P2;PMS_P1;PMS_P2;Temp;Humidity;BMP_temperature;BMP_pressure;BME280_temperature;BME280_humidity;BME280_pressure;Samples;Min_cycle;Max_cycle;Signal;HPM_P1;HPM_P2
2022/09/22 00:01:44;;;;;;;6.85;6.15;;;8.20;89.60;;;;;;5011691;28;20076;-44
2022/09/22 00:04:12;;;;;;;7.30;5.63;;;8.20;89.50;;;;;;5030859;28;20348;-43
2022/09/22 00:06:46;;;;;;;7.97;5.88;;;8.20;89.50;;;;;;5028853;28;20030;-44
2022/09/22 00:09:17;;;;;;;5.97;5.32;;;8.20;89.40;;;;;;5030726;28;20104;-43
2022/09/22 00:11:46;;;;;;;7.65;6.05;;;8.20;89.30;;;;;;5030791;28;20036;-46
2022/09/22 00:14:24;;;;;;;9.18;6.18;;;8.20;89.30;;;;;;5030870;28;20022;-44
2022/09/22 00:17:10;;;;;;;7.35;6.18;;;8.20;89.10;;;;;;5011800;28;20091;-44
2022/09/22 00:19:37;;;;;;;6.40;5.57;;;8.20;89.30;;;;;;5012015;28;20021;-44
2022/09/22 00:22:05;;;;;;;8.43;5.72;;;8.20;89.20;;;;;;5013169;28;20034;-44
2022/09/22 00:24:32;;;;;;;6.80;6.10;;;8.20;89.40;;;;;;5013814;28;20021;-44
2022/09/22 00:26:59;;;;;;;7.97;6.30;;;8.20;89.20;;;;;;5030417;28;20513;-44
2022/09/22 00:29:26;;;;;;;9.93;7.53;;;8.10;89.20;;;;;;5030933;28;20029;-45
2022/09/22 00:31:54;;;;;;;8.15;6.70;;;8.20;89.30;;;;;;5011162;28;20053;-44
2022/09/22 00:34:23;;;;;;;10.82;7.70;;;8.20;89.20;;;;;;5013318;28;20024;-44
2022/09/22 00:36:50;;;;;;;9.25;6.93;;;8.20;89.30;;;;;;5029635;28;20037;-43
2022/09/22 00:39:18;;;;;;;9.93;7.43;;;8.10;89.10;;;;;;5030936;28;20405;-43
2022/09/22 00:41:48;;;;;;;7.50;6.80;;;8.00;89.20;;;;;;5013137;28;20083;-45
2022/09/22 00:44:29;;;;;;;8.82;6.85;;;8.00;89.70;;;;;;5030031;28;20116;-43
2022/09/22 00:47:28;;;;;;;8.10;6.95;;;8.00;89.90;;;;;;5011829;28;20128;-45
2022/09/22 00:50:15;;;;;;;7.38;6.65;;;8.10;90.10;;;;;;5010910;28;20045;-43
2022/09/22 00:53:00;;;;;;;12.57;7.40;;;8.20;90.20;;;;;;5010870;28;20040;-44
2022/09/22 00:55:51;;;;;;;10.18;7.55;;;8.20;90.20;;;;;;4977162;28;20037;-44
2022/09/22 00:58:25;;;;;;;10.38;8.65;;;8.20;90.30;;;;;;5010729;28;20018;-44
2022/09/22 01:00:53;;;;;;;9.60;8.70;;;8.20;90.30;;;;;;5010029;28;20431;-44
2022/09/22 01:03:25;;;;;;;9.52;8.63;;;8.30;90.40;;;;;;5020370;28;20069;-44
2022/09/22 01:05:57;;;;;;;9.85;8.85;;;8.20;90.30;;;;;;5012889;28;20026;-46
2022/09/22 01:08:24;;;;;;;9.68;8.70;;;8.20;90.20;;;;;;5030406;28;20026;-46
2022/09/22 01:10:54;;;;;;;10.55;8.68;;;8.20;90.10;;;;;;5012500;28;20022;-43
2022/09/22 01:13:41;;;;;;;11.68;8.82;;;8.20;90.00;;;;;;5028843;28;20045;-47
2022/09/22 01:16:35;;;;;;;11.00;9.98;;;8.20;89.90;;;;;;5012514;28;20056;-44
2022/09/22 01:19:42;;;;;;;11.88;10.75;;;8.10;90.00;;;;;;5012101;28;20034;-44
2022/09/22 01:22:27;;;;;;;13.98;11.32;;;8.20;90.40;;;;;;5011067;28;20033;-44
2022/09/22 01:25:15;;;;;;;13.60;11.57;;;8.20;90.40;;;;;;5029936;28;20017;-44
2022/09/22 01:28:16;;;;;;;14.40;12.13;;;8.10;90.50;;;;;;5029918;28;20021;-44
2022/09/22 01:31:11;;;;;;;14.93;12.73;;;8.00;90.50;;;;;;5011981;28;20033;-45
2022/09/22 01:33:42;;;;;;;14.77;13.27;;;8.10;90.70;;;;;;5027934;28;20060;-44
2022/09/22 01:36:20;;;;;;;15.40;13.80;;;8.10;90.80;;;;;;5029480;28;20458;-46
2022/09/22 01:39:11;;;;;;;17.13;15.32;;;8.10;90.80;;;;;;5030046;28;20029;-43
2022/09/22 01:42:00;;;;;;;17.17;13.32;;;8.20;90.90;;;;;;5011318;28;20033;-43
2022/09/22 01:44:51;;;;;;;20.45;13.48;;;8.20;90.90;;;;;;5029296;28;20037;-45
2022/09/22 01:47:48;;;;;;;15.05;13.55;;;8.20;90.70;;;;;;5006852;28;20545;-45
2022/09/22 01:50:43;;;;;;;14.63;12.90;;;8.10;90.60;;;;;;5009669;28;20030;-44
2022/09/22 01:53:16;;;;;;;13.85;12.25;;;8.10;90.60;;;;;;5005089;28;20077;-45
2022/09/22 01:55:48;;;;;;;14.35;12.95;;;8.10;90.60;;;;;;5009712;28;20072;-44
2022/09/22 01:58:38;;;;;;;14.13;12.75;;;8.00;90.70;;;;;;4992686;28;20030;-45
2022/09/22 02:01:24;;;;;;;14.90;13.40;;;8.00;90.80;;;;;;5010309;28;20034;-45
2022/09/22 02:04:05;;;;;;;13.73;12.43;;;8.00;90.70;;;;;;5009893;28;20367;-44
2022/09/22 02:06:53;;;;;;;14.15;12.75;;;8.00;90.70;;;;;;5009584;28;20033;-45
2022/09/22 02:09:24;;;;;;;12.73;11.35;;;8.00;90.70;;;;;;5009683;28;20022;-45
2022/09/22 02:11:53;;;;;;;15.25;11.73;;;8.00;90.60;;;;;;4999154;28;20410;-45
2022/09/22 02:14:21;;;;;;;12.93;11.23;;;8.00;90.50;;;;;;4996300;28;20030;-44
2022/09/22 02:16:47;;;;;;;12.00;10.70;;;7.90;90.40;;;;;;5010394;28;20060;-46
2022/09/22 02:19:24;;;;;;;11.98;10.50;;;7.90;90.30;;;;;;5029236;28;20029;-46
2022/09/22 02:21:51;;;;;;;12.50;9.93;;;7.90;90.50;;;;;;5028272;28;20039;-47
2022/09/22 02:24:36;;;;;;;11.23;9.30;;;7.90;90.50;;;;;;5029455;28;20017;-46
2022/09/22 02:27:08;;;;;;;11.60;9.68;;;7.90;90.40;;;;;;5029209;28;20021;-45
2022/09/22 02:29:38;;;;;;;10.57;9.40;;;7.90;90.50;;;;;;5029337;28;20402;-46
2022/09/22 02:32:13;;;;;;;10.25;9.25;;;7.90;90.50;;;;;;5028610;28;20112;-46
2022/09/22 02:34:40;;;;;;;12.73;9.48;;;7.90;90.40;;;;;;5029130;28;20530;-46
2022/09/22 02:37:27;;;;;;;9.85;8.70;;;7.90;90.30;;;;;;5029022;28;20091;-45
2022/09/22 02:40:05;;;;;;;11.85;9.55;;;7.90;90.10;;;;;;5029413;28;20025;-45
2022/09/22 02:42:54;;;;;;;13.55;8.63;;;7.90;90.10;;;;;;5027863;28;20038;-44
2022/09/22 02:45:45;;;;;;;9.85;8.93;;;7.80;89.90;;;;;;5028994;28;20472;-45
2022/09/22 02:48:20;;;;;;;8.82;7.88;;;7.80;90.00;;;;;;5026729;28;20140;-47
2022/09/22 02:50:47;;;;;;;11.73;8.32;;;7.80;90.10;;;;;;5011521;28;20033;-47
2022/09/22 02:53:16;;;;;;;10.95;8.27;;;7.80;90.00;;;;;;5028924;28;20025;-44
2022/09/22 02:55:44;;;;;;;12.45;9.13;;;7.70;89.90;;;;;;5032537;28;20026;-44
2022/09/22 02:58:15;;;;;;;12.40;7.55;;;7.70;90.00;;;;;;5031515;28;20033;-43
2022/09/22 03:00:41;;;;;;;12.30;8.85;;;7.70;90.00;;;;;;5032983;28;20039;-46
2022/09/22 03:03:09;;;;;;;10.57;8.45;;;7.60;90.10;;;;;;5031784;28;20116;-44
2022/09/22 03:05:37;;;;;;;7.78;7.00;;;7.70;90.10;;;;;;5032294;28;20108;-45
2022/09/22 03:08:05;;;;;;;8.40;7.03;;;7.60;90.10;;;;;;5030904;28;20021;-49
2022/09/22 03:10:31;;;;;;;8.00;6.80;;;7.70;90.20;;;;;;5032345;28;20592;-47
2022/09/22 03:12:58;;;;;;;8.82;7.53;;;7.60;90.20;;;;;;5031601;28;20047;-47
2022/09/22 03:15:25;;;;;;;7.97;6.70;;;7.60;90.10;;;;;;5032336;28;20030;-45
2022/09/22 03:17:53;;;;;;;8.32;6.65;;;7.60;90.20;;;;;;5030233;28;20034;-45
2022/09/22 03:20:21;;;;;;;10.25;7.43;;;7.60;90.20;;;;;;5032481;28;20108;-45
2022/09/22 03:22:47;;;;;;;8.57;6.45;;;7.60;90.10;;;;;;5014558;28;20068;-48
2022/09/22 03:25:13;;;;;;;10.23;6.57;;;7.60;90.10;;;;;;5014416;28;20049;-45
2022/09/22 03:27:40;;;;;;;7.82;6.50;;;7.60;90.00;;;;;;5013474;28;20032;-45
2022/09/22 03:30:07;;;;;;;10.35;6.18;;;7.60;89.80;;;;;;5031577;28;20025;-45
2022/09/22 03:32:37;;;;;;;9.52;7.18;;;7.60;89.80;;;;;;5031422;28;20033;-45
2022/09/22 03:35:04;;;;;;;9.32;6.50;;;7.50;89.70;;;;;;5031820;28;20037;-44
2022/09/22 03:37:34;;;;;;;7.65;6.85;;;7.50;89.90;;;;;;5031416;28;20029;-45
2022/09/22 03:40:00;;;;;;;8.95;6.50;;;7.40;89.80;;;;;;5031953;28;20449;-45
2022/09/22 03:42:28;;;;;;;8.38;6.70;;;7.50;89.80;;;;;;5031534;28;20391;-45
2022/09/22 03:44:54;;;;;;;9.55;7.20;;;7.50;89.90;;;;;;5013409;28;20031;-45
2022/09/22 03:47:21;;;;;;;7.70;5.97;;;7.50;89.90;;;;;;5029464;28;20081;-46
2022/09/22 03:49:48;;;;;;;6.93;6.10;;;7.50;89.80;;;;;;5006302;28;20335;-46
2022/09/22 03:52:15;;;;;;;9.65;6.15;;;7.40;89.70;;;;;;5031859;28;20108;-48
2022/09/22 03:54:42;;;;;;;6.47;5.70;;;7.40;89.60;;;;;;5031663;28;20026;-44
2022/09/22 03:57:09;;;;;;;7.57;6.10;;;7.40;89.70;;;;;;4997239;28;20040;-46
2022/09/22 03:59:36;;;;;;;7.35;5.88;;;7.40;89.70;;;;;;5031685;28;20096;-47
2022/09/22 04:02:03;;;;;;;6.80;5.80;;;7.40;89.70;;;;;;5030489;28;20043;-44
2022/09/22 04:04:31;;;;;;;9.00;5.85;;;7.40;89.50;;;;;;5013078;28;20039;-48
2022/09/22 04:06:58;;;;;;;7.60;6.22;;;7.30;89.50;;;;;;5029171;28;20461;-47
2022/09/22 04:09:28;;;;;;;8.70;6.32;;;7.40;89.70;;;;;;5013968;28;20332;-44
2022/09/22 04:11:54;;;;;;;23.50;8.45;;;7.40;89.80;;;;;;5013868;28;20064;-46
2022/09/22 04:14:21;;;;;;;12.13;7.15;;;7.40;90.00;;;;;;5030994;28;20114;-45
2022/09/22 04:16:47;;;;;;;7.63;6.65;;;7.40;90.10;;;;;;5031096;28;20025;-48
2022/09/22 04:19:15;;;;;;;7.50;6.80;;;7.40;90.10;;;;;;5029122;28;20037;-45
2022/09/22 04:21:44;;;;;;;8.43;6.18;;;7.40;89.90;;;;;;5013831;28;20522;-45
2022/09/22 04:24:11;;;;;;;7.80;6.03;;;7.40;89.90;;;;;;5031191;28;20109;-47
2022/09/22 04:26:40;;;;;;;7.80;7.00;;;7.40;89.80;;;;;;5031062;28;20055;-45
2022/09/22 04:29:06;;;;;;;11.70;7.17;;;7.40;89.80;;;;;;5029965;28;20025;-46
2022/09/22 04:31:32;;;;;;;10.75;7.60;;;7.30;89.80;;;;;;5013764;28;20029;-45
2022/09/22 04:34:00;;;;;;;8.38;7.40;;;7.30;89.70;;;;;;5029014;28;20045;-46
2022/09/22 04:36:26;;;;;;;15.15;8.60;;;7.30;89.70;;;;;;5030830;28;20026;-45
2022/09/22 04:38:54;;;;;;;13.45;9.55;;;7.30;89.90;;;;;;5012786;28;20033;-45
2022/09/22 04:41:20;;;;;;;10.18;8.38;;;7.30;89.90;;;;;;5030736;28;20336;-46
2022/09/22 04:43:49;;;;;;;9.63;8.73;;;7.30;89.90;;;;;;5030413;28;20033;-45
2022/09/22 04:46:16;;;;;;;9.07;7.97;;;7.30;89.70;;;;;;5030745;28;20491;-47
2022/09/22 04:48:46;;;;;;;9.95;7.75;;;7.30;89.80;;;;;;5026757;28;20028;-47
2022/09/22 04:51:13;;;;;;;13.45;9.30;;;7.30;89.70;;;;;;5030251;28;20025;-46
2022/09/22 04:53:39;;;;;;;8.02;7.25;;;7.20;89.50;;;;;;5030779;28;20025;-46
2022/09/22 04:56:07;;;;;;;9.55;8.27;;;7.20;89.60;;;;;;5030462;28;20041;-47
2022/09/22 04:58:34;;;;;;;12.07;9.70;;;7.20;89.60;;;;;;5029605;28;20440;-47
2022/09/22 05:01:04;;;;;;;11.48;9.88;;;7.20;89.80;;;;;;5013172;28;20048;-46
2022/09/22 05:03:36;;;;;;;12.30;9.70;;;7.20;89.90;;;;;;5029332;28;20117;-48
2022/09/22 05:06:06;;;;;;;12.75;9.77;;;7.20;90.00;;;;;;5028186;28;20316;-47
2022/09/22 05:08:34;;;;;;;11.18;9.57;;;7.20;90.00;;;;;;5030417;28;20021;-46
2022/09/22 05:11:08;;;;;;;13.75;9.98;;;7.20;89.90;;;;;;5030337;28;20308;-51
2022/09/22 05:13:39;;;;;;;11.38;10.15;;;7.10;90.00;;;;;;5030045;28;20405;-49
2022/09/22 05:16:09;;;;;;;12.27;8.60;;;7.20;90.00;;;;;;5029564;28;20449;-46
2022/09/22 05:18:38;;;;;;;11.38;8.93;;;7.20;90.00;;;;;;5027244;28;20060;-46
2022/09/22 05:21:06;;;;;;;11.57;9.75;;;7.20;89.90;;;;;;5030084;28;20407;-46
2022/09/22 05:23:33;;;;;;;12.70;9.18;;;7.20;89.90;;;;;;5030022;28;20029;-47
2022/09/22 05:26:00;;;;;;;10.95;9.77;;;7.20;89.90;;;;;;5011616;28;20036;-48
2022/09/22 05:28:27;;;;;;;12.20;9.15;;;7.20;89.90;;;;;;5030125;28;20025;-51
2022/09/22 05:30:55;;;;;;;13.48;10.23;;;7.20;89.90;;;;;;5029651;28;20084;-49
2022/09/22 05:33:21;;;;;;;10.63;9.55;;;7.20;89.80;;;;;;5028066;28;20450;-46
2022/09/22 05:35:48;;;;;;;10.57;9.00;;;7.20;89.90;;;;;;5021455;28;20062;-47
2022/09/22 05:38:15;;;;;;;10.85;9.20;;;7.20;89.90;;;;;;5029857;28;20575;-48
2022/09/22 05:40:49;;;;;;;12.70;10.02;;;7.20;89.90;;;;;;5029711;28;20037;-46
2022/09/22 05:43:15;;;;;;;13.07;9.88;;;7.20;90.00;;;;;;5027600;28;20091;-46
2022/09/22 05:45:43;;;;;;;14.88;10.70;;;7.20;90.00;;;;;;5029425;28;20032;-46
2022/09/22 05:48:11;;;;;;;12.25;9.48;;;7.30;90.10;;;;;;5027296;28;20152;-46
2022/09/22 05:50:38;;;;;;;11.48;9.25;;;7.30;90.10;;;;;;5024397;28;20650;-46
2022/09/22 05:53:11;;;;;;;19.38;10.05;;;7.30;90.10;;;;;;5011708;28;20050;-46
2022/09/22 05:55:39;;;;;;;13.88;9.23;;;7.40;90.10;;;;;;5028984;28;20544;-46
2022/09/22 05:58:08;;;;;;;15.70;8.88;;;7.40;90.00;;;;;;5028873;28;20057;-47
2022/09/22 06:00:36;;;;;;;11.43;9.33;;;7.40;90.00;;;;;;5028340;28;20126;-46
2022/09/22 06:03:06;;;;;;;10.90;9.50;;;7.40;90.10;;;;;;5010096;28;20300;-46
2022/09/22 06:05:34;;;;;;;10.68;7.93;;;7.40;90.10;;;;;;5026916;28;20044;-49
2022/09/22 06:08:05;;;;;;;17.10;8.80;;;7.40;90.00;;;;;;5028964;28;20397;-47
2022/09/22 06:10:35;;;;;;;12.45;8.32;;;7.50;90.10;;;;;;5011528;28;20108;-49
2022/09/22 06:13:06;;;;;;;14.27;8.70;;;7.50;90.10;;;;;;5029025;28;20057;-47
2022/09/22 06:15:34;;;;;;;11.88;8.18;;;7.60;90.10;;;;;;5029003;28;20083;-46
2022/09/22 06:18:05;;;;;;;12.48;8.82;;;7.60;90.10;;;;;;5026671;28;20033;-46
2022/09/22 06:20:34;;;;;;;11.13;7.97;;;7.70;90.10;;;;;;5029232;28;20462;-47
2022/09/22 06:23:03;;;;;;;15.50;8.60;;;7.70;90.00;;;;;;5029536;28;20084;-46
2022/09/22 06:25:29;;;;;;;13.75;8.43;;;7.70;90.00;;;;;;5029347;28;20470;-46
2022/09/22 06:28:00;;;;;;;11.85;8.45;;;7.70;90.10;;;;;;5028042;28;20037;-47
2022/09/22 06:30:27;;;;;;;11.63;8.70;;;7.80;90.10;;;;;;5032738;28;20044;-50
2022/09/22 06:32:54;;;;;;;11.80;8.90;;;7.90;90.10;;;;;;5032706;28;20033;-46
2022/09/22 06:35:21;;;;;;;12.82;9.57;;;7.90;90.20;;;;;;5015905;28;20049;-46
2022/09/22 06:37:56;;;;;;;13.10;9.43;;;7.90;90.20;;;;;;5032015;28;20029;-48
2022/09/22 06:40:24;;;;;;;11.75;10.55;;;8.00;90.10;;;;;;5033192;28;20104;-46
2022/09/22 06:43:10;;;;;;;15.15;11.65;;;8.10;90.10;;;;;;5032995;28;20076;-46
2022/09/22 06:45:38;;;;;;;17.50;14.18;;;8.20;90.10;;;;;;5033119;28;20438;-47
2022/09/22 06:48:07;;;;;;;22.63;16.52;;;8.20;90.10;;;;;;5032166;28;20060;-48
2022/09/22 06:50:34;;;;;;;23.10;15.90;;;8.30;90.00;;;;;;5033163;28;20438;-49
2022/09/22 06:53:03;;;;;;;20.20;14.13;;;8.40;90.00;;;;;;5032893;28;20076;-46
2022/09/22 06:55:40;;;;;;;22.05;14.48;;;8.40;89.90;;;;;;5032852;28;20025;-46
2022/09/22 06:58:06;;;;;;;15.82;12.20;;;8.50;90.00;;;;;;5029821;28;20033;-46
2022/09/22 07:00:32;;;;;;;14.65;11.23;;;8.50;89.90;;;;;;5031977;28;20037;-47
2022/09/22 07:03:24;;;;;;;14.13;10.90;;;8.60;89.90;;;;;;5031930;28;20036;-46
2022/09/22 07:06:00;;;;;;;12.52;9.60;;;8.70;89.80;;;;;;4986321;28;20038;-47
2022/09/22 07:08:29;;;;;;;14.18;9.23;;;8.80;89.80;;;;;;5013774;28;20060;-45
2022/09/22 07:10:59;;;;;;;11.75;9.13;;;8.80;89.70;;;;;;4998035;28;20362;-46
2022/09/22 07:13:28;;;;;;;13.77;9.27;;;8.90;89.70;;;;;;5030426;28;20033;-46
2022/09/22 07:16:07;;;;;;;15.15;10.38;;;8.90;89.70;;;;;;5031696;28;20401;-47
2022/09/22 07:18:39;;;;;;;11.93;8.95;;;9.00;89.70;;;;;;5029671;28;20021;-46
2022/09/22 07:21:11;;;;;;;9.45;7.82;;;9.10;89.60;;;;;;5031238;28;20088;-48
2022/09/22 07:23:40;;;;;;;8.88;7.55;;;9.20;89.70;;;;;;5030230;28;20741;-47
2022/09/22 07:26:13;;;;;;;11.03;7.40;;;9.30;89.60;;;;;;5031411;28;20029;-46
2022/09/22 07:28:40;;;;;;;10.80;7.78;;;9.40;89.50;;;;;;5031252;28;20543;-46
2022/09/22 07:31:12;;;;;;;9.27;7.97;;;9.50;89.50;;;;;;5032160;28;20025;-46
2022/09/22 07:33:41;;;;;;;13.00;7.97;;;9.80;89.40;;;;;;5030372;28;20025;-45
2022/09/22 07:36:25;;;;;;;8.98;6.50;;;10.20;89.00;;;;;;5031681;28;20442;-47
2022/09/22 07:38:54;;;;;;;8.98;5.50;;;10.70;88.20;;;;;;5031773;28;20029;-45
2022/09/22 07:41:23;;;;;;;10.52;6.43;;;11.10;85.70;;;;;;5013204;28;20033;-45
2022/09/22 07:43:55;;;;;;;10.45;5.97;;;11.40;84.10;;;;;;5029434;28;20040;-44
2022/09/22 07:46:21;;;;;;;16.13;5.45;;;11.90;83.60;;;;;;5031003;28;20045;-44
2022/09/22 07:48:48;;;;;;;10.07;5.60;;;12.30;83.30;;;;;;5029787;28;20044;-43
2022/09/22 07:51:32;;;;;;;11.35;5.72;;;12.70;82.30;;;;;;5032060;28;20083;-45
2022/09/22 07:54:06;;;;;;;12.90;5.82;;;13.20;80.70;;;;;;5030737;28;20032;-45
2022/09/22 07:56:43;;;;;;;12.13;6.18;;;13.50;80.80;;;;;;5031624;28;20423;-47
2022/09/22 07:59:12;;;;;;;7.82;5.25;;;13.60;78.50;;;;;;5014140;28;20465;-48
2022/09/22 08:01:46;;;;;;;7.40;5.05;;;14.10;78.90;;;;;;5031741;28;20025;-45
2022/09/22 08:04:21;;;;;;;9.40;5.28;;;14.30;78.00;;;;;;5029778;28;20031;-46
2022/09/22 08:06:51;;;;;;;9.05;4.88;;;14.50;77.20;;;;;;5014244;28;20026;-45
2022/09/22 08:09:18;;;;;;;20.52;6.35;;;14.90;75.30;;;;;;5014049;28;20021;-47
2022/09/22 08:11:47;;;;;;;12.68;5.38;;;14.90;74.20;;;;;;5031485;28;20056;-46
2022/09/22 08:14:16;;;;;;;6.72;5.03;;;15.00;73.60;;;;;;5029188;28;20390;-45
2022/09/22 08:16:44;;;;;;;7.30;4.50;;;15.20;74.20;;;;;;5031192;28;20052;-48
2022/09/22 08:19:12;;;;;;;7.38;4.65;;;15.30;73.30;;;;;;5012499;28;20462;-47
2022/09/22 08:21:40;;;;;;;8.80;5.30;;;15.50;73.10;;;;;;5031414;28;20029;-46
2022/09/22 08:24:09;;;;;;;7.90;4.63;;;15.50;72.00;;;;;;5030035;28;20033;-46
2022/09/22 08:26:40;;;;;;;10.25;4.50;;;15.70;71.30;;;;;;5031367;28;20030;-47
2022/09/22 08:29:08;;;;;;;8.35;4.57;;;15.80;72.20;;;;;;5013898;28;20036;-48
2022/09/22 08:31:35;;;;;;;8.40;5.18;;;15.90;72.90;;;;;;5032007;28;20021;-50
2022/09/22 08:34:06;;;;;;;7.65;4.35;;;16.30;73.80;;;;;;5029089;28;20026;-50
2022/09/22 08:36:45;;;;;;;7.43;3.35;;;16.20;70.70;;;;;;5013407;28;20104;-47
2022/09/22 08:39:14;;;;;;;7.50;4.05;;;16.20;69.30;;;;;;5030607;28;20036;-45
2022/09/22 08:41:48;;;;;;;7.10;3.58;;;16.40;69.00;;;;;;5030083;28;20057;-48
2022/09/22 08:44:18;;;;;;;9.15;3.65;;;16.30;66.80;;;;;;5029518;28;20044;-47
2022/09/22 08:46:46;;;;;;;5.05;2.97;;;16.30;68.00;;;;;;5029681;28;20054;-50
2022/09/22 08:52:33;;;;;;;7.47;3.75;;;16.80;66.40;;;;;;5030218;28;20378;-50
2022/09/22 08:55:01;;;;;;;7.13;3.40;;;16.90;65.10;;;;;;5012215;28;20049;-46
2022/09/22 08:58:00;;;;;;;7.85;3.78;;;17.10;65.70;;;;;;5030474;28;20104;-47
2022/09/22 09:00:36;;;;;;;6.97;3.45;;;16.90;66.70;;;;;;5030593;28;20085;-47
2022/09/22 09:03:29;;;;;;;6.85;3.03;;;16.90;66.00;;;;;;5030145;28;20029;-48
2022/09/22 09:06:17;;;;;;;5.97;3.40;;;17.20;67.40;;;;;;5029059;28;20420;-47
2022/09/22 09:09:19;;;;;;;6.68;3.40;;;17.30;66.10;;;;;;5030093;28;20336;-50
2022/09/22 09:12:02;;;;;;;7.60;2.85;;;17.20;64.70;;;;;;5030023;28;20048;-49
2022/09/22 09:14:42;;;;;;;11.88;4.18;;;17.40;65.90;;;;;;5026836;28;20096;-49
2022/09/22 09:17:29;;;;;;;6.10;2.65;;;17.20;65.30;;;;;;5030139;28;20021;-49
2022/09/22 09:20:20;;;;;;;14.43;5.70;;;17.50;65.60;;;;;;5028225;28;20025;-48
2022/09/22 09:22:55;;;;;;;25.00;6.15;;;17.90;66.60;;;;;;5030060;28;20029;-49
2022/09/22 09:25:41;;;;;;;27.90;6.97;;;18.00;62.80;;;;;;5029056;28;20025;-48
2022/09/22 09:28:19;;;;;;;11.60;4.93;;;17.90;63.00;;;;;;5029766;28;20025;-50
2022/09/22 09:30:49;;;;;;;35.30;8.65;;;18.00;63.80;;;;;;5030085;28;20022;-47
2022/09/22 09:33:21;;;;;;;19.05;3.47;;;17.90;61.90;;;;;;5012455;28;20036;-49
2022/09/22 09:35:50;;;;;;;10.00;2.80;;;17.90;62.30;;;;;;5028654;28;20036;-50
2022/09/22 09:38:26;;;;;;;7.30;2.53;;;18.00;60.60;;;;;;5029829;28;20031;-45
2022/09/22 09:41:04;;;;;;;13.30;2.53;;;17.90;61.70;;;;;;5029585;28;20043;-46
2022/09/22 09:43:32;;;;;;;6.15;2.40;;;18.20;62.30;;;;;;5028683;28;20071;-49
2022/09/22 09:46:26;;;;;;;8.27;2.90;;;18.20;61.80;;;;;;5029454;28;20105;-48
2022/09/22 09:49:13;;;;;;;6.60;2.58;;;18.40;62.50;;;;;;5027595;28;20462;-49
2022/09/22 09:51:44;;;;;;;6.20;2.53;;;18.40;61.10;;;;;;5009936;28;20018;-49
2022/09/22 09:54:13;;;;;;;8.65;3.05;;;18.40;61.20;;;;;;5015365;28;20506;-46
2022/09/22 09:57:02;;;;;;;7.93;3.38;;;18.50;62.40;;;;;;5011538;28;20033;-46
2022/09/22 10:02:21;;;;;;;5.60;2.83;;;18.40;60.90;;;;;;5029797;28;20107;-47
2022/09/22 10:05:19;;;;;;;5.32;2.45;;;18.60;60.20;;;;;;5028072;28;20079;-49
2022/09/22 10:07:59;;;;;;;8.20;2.42;;;18.40;60.50;;;;;;5029606;28;20063;-46
2022/09/22 10:10:27;;;;;;;7.47;2.33;;;18.40;59.90;;;;;;5012848;28;20036;-49
2022/09/22 10:13:27;;;;;;;4.78;1.23;;;18.30;58.10;;;;;;5029345;28;20042;-48
2022/09/22 10:16:06;;;;;;;3.30;1.40;;;18.40;61.90;;;;;;5011269;28;20061;-49
2022/09/22 10:18:36;;;;;;;3.90;2.03;;;18.40;58.70;;;;;;5029099;28;20149;-46
2022/09/22 10:21:20;;;;;;;5.85;1.80;;;18.40;58.90;;;;;;5028438;28;20033;-47
2022/09/22 10:23:50;;;;;;;7.55;2.67;;;18.20;59.50;;;;;;5028370;28;20025;-48
2022/09/22 10:26:26;;;;;;;3.63;1.58;;;18.20;60.50;;;;;;5029414;28;20053;-51
2022/09/22 10:29:08;;;;;;;7.13;2.05;;;18.50;59.60;;;;;;5011859;28;20533;-45
2022/09/22 10:31:38;;;;;;;4.80;1.80;;;18.60;60.30;;;;;;5029212;28;20053;-46
2022/09/22 10:34:22;;;;;;;6.45;2.10;;;18.60;59.80;;;;;;5028358;28;20029;-48
2022/09/22 10:36:50;;;;;;;3.88;1.60;;;18.40;59.30;;;;;;5023013;28;20064;-46
2022/09/22 10:39:19;;;;;;;4.68;1.50;;;18.60;58.90;;;;;;5028892;28;20065;-49
2022/09/22 10:41:47;;;;;;;7.53;2.33;;;18.60;58.90;;;;;;5029061;28;20049;-47
2022/09/22 10:44:19;;;;;;;9.00;2.20;;;18.40;56.50;;;;;;5027876;28;20083;-49
2022/09/22 10:47:04;;;;;;;6.85;1.98;;;18.50;59.10;;;;;;5028782;28;20125;-48
2022/09/22 10:49:45;;;;;;;6.13;1.95;;;18.60;60.80;;;;;;5026506;28;20685;-46
2022/09/22 10:52:50;;;;;;;5.20;2.10;;;18.90;58.90;;;;;;5028406;28;20026;-45
2022/09/22 10:55:29;;;;;;;8.63;3.30;;;18.70;56.90;;;;;;5028407;28;20060;-45
2022/09/22 10:58:06;;;;;;;6.55;2.03;;;18.50;58.40;;;;;;5011688;28;20053;-48
2022/09/22 11:00:38;;;;;;;6.32;1.40;;;18.40;56.30;;;;;;5027911;28;20443;-52
2022/09/22 11:03:41;;;;;;;6.07;1.75;;;18.50;57.60;;;;;;5028906;28;20044;-46
2022/09/22 11:12:48;;;;;;;5.25;2.20;;;18.40;58.90;;;;;;5027813;28;20374;-46
2022/09/22 11:15:37;;;;;;;6.85;1.60;;;18.20;55.80;;;;;;5030196;28;20059;-45
2022/09/22 11:18:30;;;;;;;6.80;2.25;;;17.90;56.10;;;;;;5014924;28;20048;-49
2022/09/22 11:21:05;;;;;;;15.23;2.55;;;17.60;58.40;;;;;;5023626;28;20033;-50
2022/09/22 11:24:02;;;;;;;3.67;1.90;;;17.30;58.80;;;;;;5032361;28;20048;-47
2022/09/22 11:27:14;;;;;;;7.63;2.22;;;17.30;59.40;;;;;;5032387;28;20033;-45
2022/09/22 11:30:07;;;;;;;5.13;1.70;;;17.80;59.30;;;;;;4897863;29;20032;-46
2022/09/22 11:32:44;;;;;;;5.22;2.20;;;18.20;60.00;;;;;;4897956;29;20060;-46
2022/09/22 11:35:47;;;;;;;10.02;2.72;;;18.20;58.70;;;;;;4924814;29;20481;-46
2022/09/22 11:38:24;;;;;;;5.85;2.08;;;17.90;58.40;;;;;;4932807;29;20513;-50
2022/09/22 11:40:56;;;;;;;5.25;2.67;;;17.90;60.50;;;;;;4931942;29;20047;-49
2022/09/22 11:43:44;;;;;;;6.00;2.38;;;17.90;57.70;;;;;;4932621;29;20028;-46
2022/09/22 11:46:36;;;;;;;3.53;2.03;;;18.10;56.20;;;;;;4932466;29;20386;-46
2022/09/22 11:49:43;;;;;;;5.78;2.20;;;18.40;53.90;;;;;;4916103;29;20032;-52
2022/09/22 11:52:23;;;;;;;5.75;2.55;;;18.80;55.10;;;;;;4932180;29;20524;-50
2022/09/22 11:55:22;;;;;;;6.25;2.90;;;18.60;52.20;;;;;;4932527;29;20099;-46
2022/09/22 11:57:58;;;;;;;4.03;2.33;;;18.40;54.50;;;;;;4932205;29;20087;-47
2022/09/22 12:00:24;;;;;;;6.80;2.38;;;18.20;54.00;;;;;;4970540;28;20685;-47
2022/09/22 12:03:13;;;;;;;5.07;2.65;;;17.90;54.20;;;;;;4994709;28;20093;-49
2022/09/22 12:05:57;;;;;;;6.10;2.33;;;17.70;56.50;;;;;;4993391;28;20048;-47
2022/09/22 12:08:33;;;;;;;5.18;2.38;;;17.60;55.90;;;;;;5011767;28;20101;-47
2022/09/22 12:11:01;;;;;;;4.10;2.25;;;17.80;55.60;;;;;;5009896;28;20033;-52
2022/09/22 12:13:29;;;;;;;7.05;2.50;;;18.20;55.50;;;;;;5011779;28;20396;-47
2022/09/22 12:16:40;;;;;;;5.15;2.22;;;18.40;54.30;;;;;;5011636;28;20037;-48
2022/09/22 12:19:24;;;;;;;6.25;2.08;;;18.70;53.90;;;;;;4992662;28;20037;-48
2022/09/22 12:22:09;;;;;;;6.20;2.47;;;18.40;52.40;;;;;;5011663;28;20037;-46
2022/09/22 12:24:36;;;;;;;4.30;1.65;;;18.30;54.00;;;;;;4993616;28;20029;-48
2022/09/22 12:27:34;;;;;;;4.38;1.70;;;18.20;55.20;;;;;;5010681;28;20033;-47
2022/09/22 12:30:03;;;;;;;4.97;1.40;;;18.10;54.70;;;;;;4992397;28;20034;-49
2022/09/22 12:32:35;;;;;;;4.63;1.60;;;18.20;55.50;;;;;;5011236;28;20441;-46
2022/09/22 12:35:03;;;;;;;6.32;1.95;;;18.30;53.80;;;;;;4992946;28;20046;-46
2022/09/22 12:37:38;;;;;;;5.53;2.03;;;18.20;52.40;;;;;;4993953;28;20041;-46
2022/09/22 12:40:40;;;;;;;6.40;1.70;;;18.30;54.20;;;;;;5010346;28;20021;-47
2022/09/22 12:43:18;;;;;;;3.03;1.20;;;18.20;54.10;;;;;;4993439;28;20037;-46
2022/09/22 12:45:45;;;;;;;5.43;1.70;;;17.80;54.70;;;;;;4978156;28;20358;-49
2022/09/22 12:48:34;;;;;;;10.35;1.88;;;17.70;55.80;;;;;;5028051;28;20060;-48
2022/09/22 12:51:25;;;;;;;8.57;2.40;;;17.40;53.90;;;;;;5030007;28;20033;-48
2022/09/22 12:54:20;;;;;;;7.43;2.25;;;17.20;54.90;;;;;;5030910;28;20031;-46
2022/09/22 12:57:04;;;;;;;4.05;1.92;;;17.20;57.70;;;;;;5012925;28;20034;-48
2022/09/22 12:59:56;;;;;;;4.05;2.00;;;17.30;56.80;;;;;;5028938;28;20068;-46
2022/09/22 13:02:42;;;;;;;4.45;2.00;;;17.30;56.30;;;;;;5013017;28;20383;-48
2022/09/22 13:05:32;;;;;;;5.45;2.95;;;17.10;56.00;;;;;;5028372;28;20049;-47
2022/09/22 13:07:58;;;;;;;6.00;1.92;;;17.10;57.00;;;;;;5023439;28;20036;-51
2022/09/22 13:10:26;;;;;;;4.45;1.65;;;17.20;56.70;;;;;;5010037;28;20029;-49
2022/09/22 13:13:08;;;;;;;3.25;1.67;;;17.40;56.70;;;;;;5030256;28;20565;-49
2022/09/22 13:15:48;;;;;;;5.45;1.90;;;17.40;55.20;;;;;;5030470;28;20029;-46
2022/09/22 13:18:36;;;;;;;3.97;1.30;;;17.50;55.70;;;;;;5030052;28;20100;-47
2022/09/22 13:21:33;;;;;;;7.03;2.38;;;17.80;55.00;;;;;;5027700;28;20048;-49
2022/09/22 13:24:02;;;;;;;5.65;2.22;;;18.00;55.40;;;;;;5029965;28;20336;-47
2022/09/22 13:26:46;;;;;;;5.10;2.63;;;18.20;55.10;;;;;;5030012;28;20461;-46
2022/09/22 13:29:31;;;;;;;3.75;2.03;;;18.20;51.70;;;;;;5029284;28;20033;-46
2022/09/22 13:31:57;;;;;;;4.07;2.30;;;18.00;53.70;;;;;;5012602;28;20151;-46
2022/09/22 13:34:34;;;;;;;8.50;2.38;;;17.90;54.00;;;;;;5010467;28;20133;-47
2022/09/22 13:37:11;;;;;;;7.65;2.25;;;17.80;55.80;;;;;;5010179;28;20044;-46
2022/09/22 13:39:43;;;;;;;4.05;1.58;;;17.60;55.80;;;;;;5013487;28;20022;-46
2022/09/22 13:42:13;;;;;;;4.18;2.08;;;17.50;54.90;;;;;;5028928;28;20030;-49